Terminal Aerodrome Forecast
Issued by NWS Mt. Holly, NJ

Home | Current Version | Previous Version | Text Only | Print | Product List | Glossary On
Versions: 1 2 3 4 5 6 7 8 9 10 11 12 13 14 15 16 17 18 19 20 21 22 23 24 25 26 27 28 29 30 31 32 33 34 35 36 37 38 39 40 41 42 43 44 45 46 47 48 49 50
000
FTAK31 PANC 260016 AAA
TAFABE
TAF AMD
PABE 260016Z 2600/2624 18028G37KT 2SM -SNRA SCT005 OVC009
      WS020/22055KT
      TEMPO 2600/2602 1/2SM -SN BLSN BKN005
     FM260200 20022KT 2SM -SN BR OVC008 WS020/23045KT
     FM260700 21015KT P6SM VCSH SCT008 OVC015
     FM261800 19007KT 3SM -SHSN BKN008 OVC012=

USA.gov is the U.S. government's official web portal to all federal, state and local government web resources and services.